Akutan, Alaska
Current Conditions -  °F | °C
As of 9:35 PM on Sunday 23 Nov 2014 (Local Time) from PAUT Reporting Station
Broken Clouds Broken Clouds  
Wind Chill: -4°   Ceiling: 1500
Heat Index:   Visibility: 10mi
Dew Point:   Wind: 26mph
Humidity: 86%   Direction: 310°NW
Pressure: 29.57"   Gusts: 30mph
Location:  54.14°N, 165.77°W
Report Text: PAUT 240635Z AUTO 31023G26KT 10SM BKN015 BKN021 BKN027 03/01 A2957 RMK AO2 T00280006
Loading
Personal Weather Stations






























Interactive Weather Map New forecast layout! Learn more

10-Day Weather Forecast

Advertisements
Track Severe Weather on mobile